sensor_id;sensor_type;location;lat;lon;timestamp;P1;durP1;ratioP1;P2;durP2;ratioP2
72261;SDS011;60173;52.112;8.648;2023-01-26T00:00:54;159.25;;;58.75;;
72261;SDS011;60173;52.112;8.648;2023-01-26T00:03:21;160.23;;;58.30;;
72261;SDS011;60173;52.112;8.648;2023-01-26T00:05:47;158.57;;;57.85;;
72261;SDS011;60173;52.112;8.648;2023-01-26T00:08:14;159.90;;;57.00;;
72261;SDS011;60173;52.112;8.648;2023-01-26T00:10:40;157.95;;;57.70;;
72261;SDS011;60173;52.112;8.648;2023-01-26T00:13:08;161.05;;;59.72;;
72261;SDS011;60173;52.112;8.648;2023-01-26T00:15:35;160.70;;;58.80;;
72261;SDS011;60173;52.112;8.648;2023-01-26T00:18:02;157.93;;;60.13;;
72261;SDS011;60173;52.112;8.648;2023-01-26T00:20:32;152.00;;;57.55;;
72261;SDS011;60173;52.112;8.648;2023-01-26T00:22:58;176.38;;;63.65;;
72261;SDS011;60173;52.112;8.648;2023-01-26T00:25:24;163.48;;;61.33;;
72261;SDS011;60173;52.112;8.648;2023-01-26T00:27:51;165.38;;;60.70;;
72261;SDS011;60173;52.112;8.648;2023-01-26T00:30:17;165.63;;;61.55;;
72261;SDS011;60173;52.112;8.648;2023-01-26T00:32:44;160.95;;;61.47;;
72261;SDS011;60173;52.112;8.648;2023-01-26T00:35:10;161.10;;;60.17;;
72261;SDS011;60173;52.112;8.648;2023-01-26T00:37:36;165.85;;;60.63;;
72261;SDS011;60173;52.112;8.648;2023-01-26T00:40:03;170.57;;;60.97;;
72261;SDS011;60173;52.112;8.648;2023-01-26T00:42:29;151.57;;;58.15;;
72261;SDS011;60173;52.112;8.648;2023-01-26T00:44:56;168.23;;;61.53;;
72261;SDS011;60173;52.112;8.648;2023-01-26T00:47:22;169.23;;;60.78;;
72261;SDS011;60173;52.112;8.648;2023-01-26T00:49:48;167.35;;;62.13;;
72261;SDS011;60173;52.112;8.648;2023-01-26T00:52:15;156.95;;;59.33;;
72261;SDS011;60173;52.112;8.648;2023-01-26T00:54:41;162.73;;;59.03;;
72261;SDS011;60173;52.112;8.648;2023-01-26T00:57:08;162.05;;;58.35;;
72261;SDS011;60173;52.112;8.648;2023-01-26T00:59:35;152.48;;;56.42;;
72261;SDS011;60173;52.112;8.648;2023-01-26T01:02:01;158.85;;;59.45;;
72261;SDS011;60173;52.112;8.648;2023-01-26T01:04:28;159.10;;;58.10;;
72261;SDS011;60173;52.112;8.648;2023-01-26T01:06:56;161.32;;;59.70;;
72261;SDS011;60173;52.112;8.648;2023-01-26T01:09:24;155.30;;;56.03;;
72261;SDS011;60173;52.112;8.648;2023-01-26T01:11:51;156.40;;;58.85;;
72261;SDS011;60173;52.112;8.648;2023-01-26T01:14:17;168.57;;;62.28;;
72261;SDS011;60173;52.112;8.648;2023-01-26T01:16:43;159.15;;;58.13;;
72261;SDS011;60173;52.112;8.648;2023-01-26T01:19:12;162.88;;;59.42;;
72261;SDS011;60173;52.112;8.648;2023-01-26T01:21:39;161.10;;;60.17;;
72261;SDS011;60173;52.112;8.648;2023-01-26T01:24:06;160.18;;;56.85;;
72261;SDS011;60173;52.112;8.648;2023-01-26T01:26:33;160.15;;;59.20;;
72261;SDS011;60173;52.112;8.648;2023-01-26T01:28:59;156.27;;;57.78;;
72261;SDS011;60173;52.112;8.648;2023-01-26T01:31:25;170.90;;;62.15;;
72261;SDS011;60173;52.112;8.648;2023-01-26T01:33:52;165.45;;;60.40;;
72261;SDS011;60173;52.112;8.648;2023-01-26T01:36:18;163.90;;;58.38;;
72261;SDS011;60173;52.112;8.648;2023-01-26T01:38:45;156.80;;;57.78;;
72261;SDS011;60173;52.112;8.648;2023-01-26T01:41:13;161.55;;;57.08;;
72261;SDS011;60173;52.112;8.648;2023-01-26T01:43:41;158.05;;;58.22;;
72261;SDS011;60173;52.112;8.648;2023-01-26T01:51:42;171.30;;;61.40;;
72261;SDS011;60173;52.112;8.648;2023-01-26T01:54:14;160.93;;;59.97;;
72261;SDS011;60173;52.112;8.648;2023-01-26T01:56:46;156.07;;;56.40;;
72261;SDS011;60173;52.112;8.648;2023-01-26T01:59:15;164.45;;;60.80;;
72261;SDS011;60173;52.112;8.648;2023-01-26T02:01:42;164.95;;;60.25;;
72261;SDS011;60173;52.112;8.648;2023-01-26T02:04:09;151.15;;;58.13;;
72261;SDS011;60173;52.112;8.648;2023-01-26T02:06:38;177.90;;;61.03;;
72261;SDS011;60173;52.112;8.648;2023-01-26T02:09:11;155.15;;;56.90;;
72261;SDS011;60173;52.112;8.648;2023-01-26T02:11:39;176.43;;;62.92;;
72261;SDS011;60173;52.112;8.648;2023-01-26T02:14:08;174.70;;;62.50;;
72261;SDS011;60173;52.112;8.648;2023-01-26T02:16:36;162.48;;;60.63;;
72261;SDS011;60173;52.112;8.648;2023-01-26T02:19:03;167.80;;;58.70;;
72261;SDS011;60173;52.112;8.648;2023-01-26T02:21:29;167.73;;;59.60;;
72261;SDS011;60173;52.112;8.648;2023-01-26T02:24:17;164.68;;;59.38;;
72261;SDS011;60173;52.112;8.648;2023-01-26T02:26:51;169.90;;;58.95;;
72261;SDS011;60173;52.112;8.648;2023-01-26T02:29:18;173.98;;;62.80;;
72261;SDS011;60173;52.112;8.648;2023-01-26T02:31:46;164.88;;;57.90;;
72261;SDS011;60173;52.112;8.648;2023-01-26T02:34:13;163.13;;;58.78;;
72261;SDS011;60173;52.112;8.648;2023-01-26T02:36:40;180.32;;;62.35;;
72261;SDS011;60173;52.112;8.648;2023-01-26T02:39:21;177.57;;;60.13;;
72261;SDS011;60173;52.112;8.648;2023-01-26T02:42:08;183.18;;;62.47;;
72261;SDS011;60173;52.112;8.648;2023-01-26T02:44:35;168.57;;;58.63;;
72261;SDS011;60173;52.112;8.648;2023-01-26T02:47:12;190.25;;;62.13;;
72261;SDS011;60173;52.112;8.648;2023-01-26T02:49:40;179.57;;;60.25;;
72261;SDS011;60173;52.112;8.648;2023-01-26T02:52:07;178.10;;;62.83;;
72261;SDS011;60173;52.112;8.648;2023-01-26T02:54:33;171.48;;;59.88;;
72261;SDS011;60173;52.112;8.648;2023-01-26T02:57:00;178.02;;;59.90;;
72261;SDS011;60173;52.112;8.648;2023-01-26T02:59:26;178.30;;;61.08;;
72261;SDS011;60173;52.112;8.648;2023-01-26T03:01:53;175.75;;;60.58;;
72261;SDS011;60173;52.112;8.648;2023-01-26T03:04:20;186.18;;;60.75;;
72261;SDS011;60173;52.112;8.648;2023-01-26T03:06:47;175.40;;;60.22;;
72261;SDS011;60173;52.112;8.648;2023-01-26T03:09:13;171.35;;;58.30;;
72261;SDS011;60173;52.112;8.648;2023-01-26T03:11:40;183.00;;;60.88;;
72261;SDS011;60173;52.112;8.648;2023-01-26T03:14:09;173.05;;;60.00;;
72261;SDS011;60173;52.112;8.648;2023-01-26T03:16:40;173.77;;;58.78;;
72261;SDS011;60173;52.112;8.648;2023-01-26T03:19:08;184.50;;;60.97;;
72261;SDS011;60173;52.112;8.648;2023-01-26T03:21:37;172.85;;;59.53;;
72261;SDS011;60173;52.112;8.648;2023-01-26T03:24:04;173.52;;;60.83;;
72261;SDS011;60173;52.112;8.648;2023-01-26T03:26:31;178.82;;;60.42;;
72261;SDS011;60173;52.112;8.648;2023-01-26T03:28:57;168.60;;;57.80;;
72261;SDS011;60173;52.112;8.648;2023-01-26T03:31:23;173.45;;;59.92;;
72261;SDS011;60173;52.112;8.648;2023-01-26T03:33:50;168.93;;;59.17;;
72261;SDS011;60173;52.112;8.648;2023-01-26T03:36:16;179.90;;;60.90;;
72261;SDS011;60173;52.112;8.648;2023-01-26T03:38:43;179.85;;;61.83;;
72261;SDS011;60173;52.112;8.648;2023-01-26T03:41:09;181.82;;;62.28;;
72261;SDS011;60173;52.112;8.648;2023-01-26T03:43:35;186.75;;;61.95;;
72261;SDS011;60173;52.112;8.648;2023-01-26T03:46:02;189.65;;;62.50;;
72261;SDS011;60173;52.112;8.648;2023-01-26T03:48:29;184.40;;;59.90;;
72261;SDS011;60173;52.112;8.648;2023-01-26T03:50:56;186.00;;;60.85;;
72261;SDS011;60173;52.112;8.648;2023-01-26T03:53:22;179.05;;;60.78;;
72261;SDS011;60173;52.112;8.648;2023-01-26T03:55:49;192.52;;;61.08;;
72261;SDS011;60173;52.112;8.648;2023-01-26T03:58:16;172.48;;;56.75;;
72261;SDS011;60173;52.112;8.648;2023-01-26T04:00:42;183.73;;;58.95;;
72261;SDS011;60173;52.112;8.648;2023-01-26T04:03:09;187.98;;;59.63;;
72261;SDS011;60173;52.112;8.648;2023-01-26T04:05:36;186.25;;;58.72;;
72261;SDS011;60173;52.112;8.648;2023-01-26T04:08:02;187.40;;;59.15;;
72261;SDS011;60173;52.112;8.648;2023-01-26T04:10:30;178.68;;;58.40;;
72261;SDS011;60173;52.112;8.648;2023-01-26T04:12:56;173.15;;;55.63;;
72261;SDS011;60173;52.112;8.648;2023-01-26T04:15:22;189.25;;;59.25;;
72261;SDS011;60173;52.112;8.648;2023-01-26T04:17:49;185.38;;;58.67;;
72261;SDS011;60173;52.112;8.648;2023-01-26T04:20:15;182.15;;;56.97;;
72261;SDS011;60173;52.112;8.648;2023-01-26T04:22:41;175.80;;;54.25;;
72261;SDS011;60173;52.112;8.648;2023-01-26T04:25:09;175.52;;;53.72;;
72261;SDS011;60173;52.112;8.648;2023-01-26T04:27:38;185.98;;;55.88;;
72261;SDS011;60173;52.112;8.648;2023-01-26T04:30:05;175.60;;;54.40;;
72261;SDS011;60173;52.112;8.648;2023-01-26T04:32:34;173.15;;;55.15;;
72261;SDS011;60173;52.112;8.648;2023-01-26T04:35:00;166.98;;;52.08;;
72261;SDS011;60173;52.112;8.648;2023-01-26T04:37:27;184.65;;;54.67;;
72261;SDS011;60173;52.112;8.648;2023-01-26T04:39:53;175.85;;;53.35;;
72261;SDS011;60173;52.112;8.648;2023-01-26T04:42:20;174.73;;;56.53;;
72261;SDS011;60173;52.112;8.648;2023-01-26T04:44:46;174.35;;;56.15;;
72261;SDS011;60173;52.112;8.648;2023-01-26T04:47:12;173.20;;;54.85;;
72261;SDS011;60173;52.112;8.648;2023-01-26T04:49:39;186.45;;;55.22;;
72261;SDS011;60173;52.112;8.648;2023-01-26T04:52:05;174.43;;;54.85;;
72261;SDS011;60173;52.112;8.648;2023-01-26T04:54:31;178.77;;;55.92;;
72261;SDS011;60173;52.112;8.648;2023-01-26T04:56:57;191.45;;;56.25;;
72261;SDS011;60173;52.112;8.648;2023-01-26T04:59:24;181.20;;;54.67;;
72261;SDS011;60173;52.112;8.648;2023-01-26T05:01:50;189.50;;;57.58;;
72261;SDS011;60173;52.112;8.648;2023-01-26T05:04:16;182.90;;;56.97;;
72261;SDS011;60173;52.112;8.648;2023-01-26T05:06:43;184.32;;;56.47;;
72261;SDS011;60173;52.112;8.648;2023-01-26T05:09:09;173.98;;;54.92;;
72261;SDS011;60173;52.112;8.648;2023-01-26T05:11:36;175.65;;;53.42;;
72261;SDS011;60173;52.112;8.648;2023-01-26T05:14:02;184.95;;;58.17;;
72261;SDS011;60173;52.112;8.648;2023-01-26T05:16:28;170.35;;;53.13;;
72261;SDS011;60173;52.112;8.648;2023-01-26T05:18:55;173.90;;;55.50;;
72261;SDS011;60173;52.112;8.648;2023-01-26T05:21:21;174.43;;;56.17;;
72261;SDS011;60173;52.112;8.648;2023-01-26T05:23:48;176.73;;;55.33;;
72261;SDS011;60173;52.112;8.648;2023-01-26T05:26:14;181.90;;;55.85;;
72261;SDS011;60173;52.112;8.648;2023-01-26T05:28:40;181.80;;;56.25;;
72261;SDS011;60173;52.112;8.648;2023-01-26T05:31:07;186.15;;;57.85;;
72261;SDS011;60173;52.112;8.648;2023-01-26T05:33:34;185.63;;;56.97;;
72261;SDS011;60173;52.112;8.648;2023-01-26T05:36:02;183.32;;;56.00;;
72261;SDS011;60173;52.112;8.648;2023-01-26T05:38:30;191.63;;;59.03;;
72261;SDS011;60173;52.112;8.648;2023-01-26T05:40:57;187.80;;;57.00;;
72261;SDS011;60173;52.112;8.648;2023-01-26T05:43:23;178.52;;;55.67;;
72261;SDS011;60173;52.112;8.648;2023-01-26T05:45:50;183.85;;;56.47;;
72261;SDS011;60173;52.112;8.648;2023-01-26T05:48:16;184.93;;;56.95;;
72261;SDS011;60173;52.112;8.648;2023-01-26T05:50:42;173.07;;;54.17;;
72261;SDS011;60173;52.112;8.648;2023-01-26T05:53:09;183.85;;;58.65;;
72261;SDS011;60173;52.112;8.648;2023-01-26T05:55:35;168.75;;;55.85;;
72261;SDS011;60173;52.112;8.648;2023-01-26T05:58:02;177.70;;;55.03;;
72261;SDS011;60173;52.112;8.648;2023-01-26T06:00:28;165.65;;;53.65;;
72261;SDS011;60173;52.112;8.648;2023-01-26T06:02:55;170.77;;;54.45;;
72261;SDS011;60173;52.112;8.648;2023-01-26T06:05:21;159.27;;;52.60;;
72261;SDS011;60173;52.112;8.648;2023-01-26T06:07:47;160.32;;;53.33;;
72261;SDS011;60173;52.112;8.648;2023-01-26T06:10:14;165.25;;;53.80;;
72261;SDS011;60173;52.112;8.648;2023-01-26T06:12:40;165.63;;;53.03;;
72261;SDS011;60173;52.112;8.648;2023-01-26T06:15:07;168.15;;;54.88;;
72261;SDS011;60173;52.112;8.648;2023-01-26T06:17:33;166.57;;;54.00;;
72261;SDS011;60173;52.112;8.648;2023-01-26T06:20:00;176.85;;;56.67;;
72261;SDS011;60173;52.112;8.648;2023-01-26T06:22:26;159.18;;;53.33;;
72261;SDS011;60173;52.112;8.648;2023-01-26T06:24:53;173.52;;;55.67;;
72261;SDS011;60173;52.112;8.648;2023-01-26T06:27:19;165.43;;;52.55;;
72261;SDS011;60173;52.112;8.648;2023-01-26T06:29:46;156.32;;;50.97;;
72261;SDS011;60173;52.112;8.648;2023-01-26T06:32:16;160.95;;;51.80;;
72261;SDS011;60173;52.112;8.648;2023-01-26T06:34:42;159.35;;;51.90;;
72261;SDS011;60173;52.112;8.648;2023-01-26T06:37:08;156.90;;;51.47;;
72261;SDS011;60173;52.112;8.648;2023-01-26T06:39:35;167.07;;;53.83;;
72261;SDS011;60173;52.112;8.648;2023-01-26T06:42:01;164.27;;;51.47;;
72261;SDS011;60173;52.112;8.648;2023-01-26T06:44:28;158.18;;;52.55;;
72261;SDS011;60173;52.112;8.648;2023-01-26T06:46:55;158.48;;;52.35;;
72261;SDS011;60173;52.112;8.648;2023-01-26T06:49:26;165.13;;;53.35;;
72261;SDS011;60173;52.112;8.648;2023-01-26T06:51:54;148.77;;;50.70;;
72261;SDS011;60173;52.112;8.648;2023-01-26T06:54:24;163.48;;;51.90;;
72261;SDS011;60173;52.112;8.648;2023-01-26T06:56:51;148.40;;;50.40;;
72261;SDS011;60173;52.112;8.648;2023-01-26T06:59:17;153.57;;;51.05;;
72261;SDS011;60173;52.112;8.648;2023-01-26T07:01:44;159.93;;;51.65;;
72261;SDS011;60173;52.112;8.648;2023-01-26T07:04:12;157.90;;;51.67;;
72261;SDS011;60173;52.112;8.648;2023-01-26T07:06:38;158.38;;;52.80;;
72261;SDS011;60173;52.112;8.648;2023-01-26T07:09:05;154.07;;;52.10;;
72261;SDS011;60173;52.112;8.648;2023-01-26T07:11:31;160.27;;;54.35;;
72261;SDS011;60173;52.112;8.648;2023-01-26T07:13:58;151.70;;;51.45;;
72261;SDS011;60173;52.112;8.648;2023-01-26T07:16:24;159.40;;;52.88;;
72261;SDS011;60173;52.112;8.648;2023-01-26T07:18:51;153.98;;;50.45;;
72261;SDS011;60173;52.112;8.648;2023-01-26T07:21:18;151.15;;;51.33;;
72261;SDS011;60173;52.112;8.648;2023-01-26T07:23:45;144.48;;;50.05;;
72261;SDS011;60173;52.112;8.648;2023-01-26T07:26:12;149.00;;;51.33;;
72261;SDS011;60173;52.112;8.648;2023-01-26T07:28:39;161.60;;;53.55;;
72261;SDS011;60173;52.112;8.648;2023-01-26T07:31:05;153.38;;;49.75;;
72261;SDS011;60173;52.112;8.648;2023-01-26T07:33:33;152.57;;;50.20;;
72261;SDS011;60173;52.112;8.648;2023-01-26T07:36:00;137.48;;;48.33;;
72261;SDS011;60173;52.112;8.648;2023-01-26T07:38:27;142.18;;;48.42;;
72261;SDS011;60173;52.112;8.648;2023-01-26T07:40:54;145.52;;;49.97;;
72261;SDS011;60173;52.112;8.648;2023-01-26T07:43:20;152.07;;;51.15;;
72261;SDS011;60173;52.112;8.648;2023-01-26T07:45:53;147.55;;;49.15;;
72261;SDS011;60173;52.112;8.648;2023-01-26T07:48:20;146.35;;;47.35;;
72261;SDS011;60173;52.112;8.648;2023-01-26T07:50:49;136.02;;;46.67;;
72261;SDS011;60173;52.112;8.648;2023-01-26T07:53:16;136.15;;;47.97;;
72261;SDS011;60173;52.112;8.648;2023-01-26T07:55:43;134.55;;;46.13;;
72261;SDS011;60173;52.112;8.648;2023-01-26T07:58:10;128.98;;;46.65;;
72261;SDS011;60173;52.112;8.648;2023-01-26T08:00:37;149.25;;;49.00;;
72261;SDS011;60173;52.112;8.648;2023-01-26T08:03:04;144.50;;;48.85;;
72261;SDS011;60173;52.112;8.648;2023-01-26T08:05:30;146.70;;;48.45;;
72261;SDS011;60173;52.112;8.648;2023-01-26T08:07:58;139.38;;;48.10;;
72261;SDS011;60173;52.112;8.648;2023-01-26T08:10:25;138.75;;;47.60;;
72261;SDS011;60173;52.112;8.648;2023-01-26T08:12:52;135.43;;;47.13;;
72261;SDS011;60173;52.112;8.648;2023-01-26T08:15:18;137.82;;;47.25;;
72261;SDS011;60173;52.112;8.648;2023-01-26T08:17:45;131.07;;;45.65;;
72261;SDS011;60173;52.112;8.648;2023-01-26T08:20:11;137.20;;;46.65;;
72261;SDS011;60173;52.112;8.648;2023-01-26T08:22:38;138.43;;;47.22;;
72261;SDS011;60173;52.112;8.648;2023-01-26T08:25:04;139.70;;;45.95;;
72261;SDS011;60173;52.112;8.648;2023-01-26T08:27:31;129.02;;;44.97;;
72261;SDS011;60173;52.112;8.648;2023-01-26T08:29:57;140.25;;;47.40;;
72261;SDS011;60173;52.112;8.648;2023-01-26T08:32:24;121.97;;;42.88;;
72261;SDS011;60173;52.112;8.648;2023-01-26T08:34:50;118.50;;;42.80;;
72261;SDS011;60173;52.112;8.648;2023-01-26T08:37:17;125.93;;;45.63;;
72261;SDS011;60173;52.112;8.648;2023-01-26T08:39:43;121.70;;;44.95;;
72261;SDS011;60173;52.112;8.648;2023-01-26T08:42:09;122.57;;;43.30;;
72261;SDS011;60173;52.112;8.648;2023-01-26T08:44:36;113.45;;;41.70;;
72261;SDS011;60173;52.112;8.648;2023-01-26T08:47:02;123.53;;;44.63;;
72261;SDS011;60173;52.112;8.648;2023-01-26T08:49:28;118.45;;;42.25;;
72261;SDS011;60173;52.112;8.648;2023-01-26T08:51:55;133.38;;;44.40;;
72261;SDS011;60173;52.112;8.648;2023-01-26T08:54:21;119.80;;;43.33;;
72261;SDS011;60173;52.112;8.648;2023-01-26T08:56:47;123.38;;;43.78;;
72261;SDS011;60173;52.112;8.648;2023-01-26T08:59:13;122.63;;;43.40;;
72261;SDS011;60173;52.112;8.648;2023-01-26T09:01:40;122.72;;;43.00;;
72261;SDS011;60173;52.112;8.648;2023-01-26T09:04:06;117.20;;;42.88;;
72261;SDS011;60173;52.112;8.648;2023-01-26T09:06:32;117.32;;;42.55;;
72261;SDS011;60173;52.112;8.648;2023-01-26T09:08:59;119.75;;;41.90;;
72261;SDS011;60173;52.112;8.648;2023-01-26T09:11:25;125.43;;;42.53;;
72261;SDS011;60173;52.112;8.648;2023-01-26T09:13:52;113.43;;;42.00;;
72261;SDS011;60173;52.112;8.648;2023-01-26T09:16:18;116.20;;;43.33;;
72261;SDS011;60173;52.112;8.648;2023-01-26T09:18:47;117.88;;;42.58;;
72261;SDS011;60173;52.112;8.648;2023-01-26T09:21:15;117.70;;;41.58;;
72261;SDS011;60173;52.112;8.648;2023-01-26T09:23:41;120.60;;;42.80;;
72261;SDS011;60173;52.112;8.648;2023-01-26T09:26:08;113.07;;;41.08;;
72261;SDS011;60173;52.112;8.648;2023-01-26T09:28:35;118.78;;;42.10;;
72261;SDS011;60173;52.112;8.648;2023-01-26T09:31:02;116.25;;;43.22;;
72261;SDS011;60173;52.112;8.648;2023-01-26T09:33:30;117.25;;;41.78;;
72261;SDS011;60173;52.112;8.648;2023-01-26T09:36:02;108.78;;;40.20;;
72261;SDS011;60173;52.112;8.648;2023-01-26T09:38:29;110.30;;;39.92;;
72261;SDS011;60173;52.112;8.648;2023-01-26T09:43:50;104.55;;;38.63;;
72261;SDS011;60173;52.112;8.648;2023-01-26T09:46:39;98.72;;;36.40;;
72261;SDS011;60173;52.112;8.648;2023-01-26T09:49:23;108.30;;;37.83;;
72261;SDS011;60173;52.112;8.648;2023-01-26T09:52:00;105.78;;;38.17;;
72261;SDS011;60173;52.112;8.648;2023-01-26T09:54:40;100.07;;;37.42;;
72261;SDS011;60173;52.112;8.648;2023-01-26T09:57:16;108.78;;;38.22;;
72261;SDS011;60173;52.112;8.648;2023-01-26T10:02:58;98.72;;;36.58;;
72261;SDS011;60173;52.112;8.648;2023-01-26T10:08:34;107.88;;;38.60;;
72261;SDS011;60173;52.112;8.648;2023-01-26T10:11:01;112.70;;;38.30;;
72261;SDS011;60173;52.112;8.648;2023-01-26T10:13:35;99.03;;;36.75;;
72261;SDS011;60173;52.112;8.648;2023-01-26T10:16:05;99.43;;;35.40;;
72261;SDS011;60173;52.112;8.648;2023-01-26T10:18:46;102.53;;;35.42;;
72261;SDS011;60173;52.112;8.648;2023-01-26T10:21:19;93.45;;;35.88;;
72261;SDS011;60173;52.112;8.648;2023-01-26T10:23:50;94.95;;;36.25;;
72261;SDS011;60173;52.112;8.648;2023-01-26T10:26:18;93.95;;;35.13;;
72261;SDS011;60173;52.112;8.648;2023-01-26T10:28:51;94.43;;;34.13;;
72261;SDS011;60173;52.112;8.648;2023-01-26T10:31:22;92.70;;;32.92;;
72261;SDS011;60173;52.112;8.648;2023-01-26T10:33:53;85.25;;;31.35;;
72261;SDS011;60173;52.112;8.648;2023-01-26T10:36:21;87.28;;;33.53;;
72261;SDS011;60173;52.112;8.648;2023-01-26T10:38:48;95.57;;;34.92;;
72261;SDS011;60173;52.112;8.648;2023-01-26T10:41:23;99.50;;;36.42;;
72261;SDS011;60173;52.112;8.648;2023-01-26T10:43:53;101.32;;;35.22;;
72261;SDS011;60173;52.112;8.648;2023-01-26T10:46:34;99.18;;;36.22;;
72261;SDS011;60173;52.112;8.648;2023-01-26T10:51:34;94.05;;;34.38;;
72261;SDS011;60173;52.112;8.648;2023-01-26T10:54:18;100.70;;;37.20;;
72261;SDS011;60173;52.112;8.648;2023-01-26T10:56:46;102.10;;;37.42;;
72261;SDS011;60173;52.112;8.648;2023-01-26T10:59:21;92.57;;;34.28;;
72261;SDS011;60173;52.112;8.648;2023-01-26T11:05:00;88.07;;;34.35;;
72261;SDS011;60173;52.112;8.648;2023-01-26T11:07:41;87.95;;;31.90;;
72261;SDS011;60173;52.112;8.648;2023-01-26T11:10:17;90.57;;;33.70;;
72261;SDS011;60173;52.112;8.648;2023-01-26T11:12:50;86.07;;;32.90;;
72261;SDS011;60173;52.112;8.648;2023-01-26T11:15:32;84.45;;;32.85;;
72261;SDS011;60173;52.112;8.648;2023-01-26T11:20:56;84.13;;;33.45;;
72261;SDS011;60173;52.112;8.648;2023-01-26T11:29:07;87.93;;;34.60;;
72261;SDS011;60173;52.112;8.648;2023-01-26T11:34:21;90.47;;;33.67;;
72261;SDS011;60173;52.112;8.648;2023-01-26T11:36:58;91.32;;;34.05;;
72261;SDS011;60173;52.112;8.648;2023-01-26T11:42:20;92.35;;;34.40;;
72261;SDS011;60173;52.112;8.648;2023-01-26T11:45:00;80.70;;;32.95;;
72261;SDS011;60173;52.112;8.648;2023-01-26T11:50:16;82.75;;;30.50;;
72261;SDS011;60173;52.112;8.648;2023-01-26T11:59:02;78.25;;;30.65;;
72261;SDS011;60173;52.112;8.648;2023-01-26T12:01:43;78.28;;;29.30;;
72261;SDS011;60173;52.112;8.648;2023-01-26T12:04:17;69.25;;;28.95;;
72261;SDS011;60173;52.112;8.648;2023-01-26T12:06:52;67.75;;;27.00;;
72261;SDS011;60173;52.112;8.648;2023-01-26T12:09:26;76.80;;;28.60;;
72261;SDS011;60173;52.112;8.648;2023-01-26T12:12:04;66.22;;;25.52;;
72261;SDS011;60173;52.112;8.648;2023-01-26T12:15:18;63.83;;;24.43;;
72261;SDS011;60173;52.112;8.648;2023-01-26T12:23:30;63.83;;;24.95;;
72261;SDS011;60173;52.112;8.648;2023-01-26T12:26:02;61.85;;;23.40;;
72261;SDS011;60173;52.112;8.648;2023-01-26T12:28:36;66.22;;;24.20;;
72261;SDS011;60173;52.112;8.648;2023-01-26T12:33:51;60.35;;;23.00;;
72261;SDS011;60173;52.112;8.648;2023-01-26T12:36:23;58.47;;;22.63;;
72261;SDS011;60173;52.112;8.648;2023-01-26T12:39:06;58.53;;;22.13;;
72261;SDS011;60173;52.112;8.648;2023-01-26T12:41:49;62.38;;;24.48;;
72261;SDS011;60173;52.112;8.648;2023-01-26T12:47:11;59.67;;;21.83;;
72261;SDS011;60173;52.112;8.648;2023-01-26T12:52:31;60.05;;;22.33;;
72261;SDS011;60173;52.112;8.648;2023-01-26T12:57:56;50.38;;;20.77;;
72261;SDS011;60173;52.112;8.648;2023-01-26T13:00:30;46.05;;;19.02;;
72261;SDS011;60173;52.112;8.648;2023-01-26T13:03:01;53.22;;;20.25;;
72261;SDS011;60173;52.112;8.648;2023-01-26T13:05:32;44.80;;;19.20;;
72261;SDS011;60173;52.112;8.648;2023-01-26T13:10:58;50.03;;;20.48;;
72261;SDS011;60173;52.112;8.648;2023-01-26T13:16:09;49.72;;;19.65;;
72261;SDS011;60173;52.112;8.648;2023-01-26T13:18:54;47.17;;;19.98;;
72261;SDS011;60173;52.112;8.648;2023-01-26T13:21:25;48.13;;;19.38;;
72261;SDS011;60173;52.112;8.648;2023-01-26T13:24:00;47.75;;;19.67;;
72261;SDS011;60173;52.112;8.648;2023-01-26T13:31:47;45.97;;;17.80;;
72261;SDS011;60173;52.112;8.648;2023-01-26T13:34:14;43.40;;;18.33;;
72261;SDS011;60173;52.112;8.648;2023-01-26T13:36:44;47.45;;;19.10;;
72261;SDS011;60173;52.112;8.648;2023-01-26T13:39:17;44.30;;;17.83;;
72261;SDS011;60173;52.112;8.648;2023-01-26T13:41:59;47.28;;;18.85;;
72261;SDS011;60173;52.112;8.648;2023-01-26T13:44:29;44.47;;;18.08;;
72261;SDS011;60173;52.112;8.648;2023-01-26T13:47:04;45.53;;;18.73;;
72261;SDS011;60173;52.112;8.648;2023-01-26T13:49:37;46.83;;;17.75;;
72261;SDS011;60173;52.112;8.648;2023-01-26T13:52:15;47.42;;;18.70;;
72261;SDS011;60173;52.112;8.648;2023-01-26T13:54:43;48.28;;;19.23;;
72261;SDS011;60173;52.112;8.648;2023-01-26T13:57:11;44.72;;;17.92;;
72261;SDS011;60173;52.112;8.648;2023-01-26T13:59:49;44.83;;;18.27;;
72261;SDS011;60173;52.112;8.648;2023-01-26T14:02:21;47.83;;;18.20;;
72261;SDS011;60173;52.112;8.648;2023-01-26T14:04:54;49.17;;;19.20;;
72261;SDS011;60173;52.112;8.648;2023-01-26T14:07:25;41.28;;;16.67;;
72261;SDS011;60173;52.112;8.648;2023-01-26T14:09:56;45.20;;;17.73;;
72261;SDS011;60173;52.112;8.648;2023-01-26T14:12:28;46.58;;;18.05;;
72261;SDS011;60173;52.112;8.648;2023-01-26T14:14:59;45.05;;;18.40;;
72261;SDS011;60173;52.112;8.648;2023-01-26T14:17:31;45.90;;;18.58;;
72261;SDS011;60173;52.112;8.648;2023-01-26T14:20:00;45.05;;;17.33;;
72261;SDS011;60173;52.112;8.648;2023-01-26T14:22:26;37.83;;;16.30;;
72261;SDS011;60173;52.112;8.648;2023-01-26T14:24:53;45.42;;;16.80;;
72261;SDS011;60173;52.112;8.648;2023-01-26T14:29:57;40.38;;;15.25;;
72261;SDS011;60173;52.112;8.648;2023-01-26T14:32:24;43.92;;;16.40;;
72261;SDS011;60173;52.112;8.648;2023-01-26T14:34:52;39.40;;;15.95;;
72261;SDS011;60173;52.112;8.648;2023-01-26T14:37:23;38.28;;;16.45;;
72261;SDS011;60173;52.112;8.648;2023-01-26T14:40:15;35.63;;;15.48;;
72261;SDS011;60173;52.112;8.648;2023-01-26T14:42:46;29.70;;;11.10;;
72261;SDS011;60173;52.112;8.648;2023-01-26T14:45:15;40.13;;;15.48;;
72261;SDS011;60173;52.112;8.648;2023-01-26T14:47:42;38.20;;;15.02;;
72261;SDS011;60173;52.112;8.648;2023-01-26T14:50:10;35.05;;;15.35;;
72261;SDS011;60173;52.112;8.648;2023-01-26T14:52:44;34.50;;;14.70;;
72261;SDS011;60173;52.112;8.648;2023-01-26T14:55:21;39.05;;;15.52;;
72261;SDS011;60173;52.112;8.648;2023-01-26T14:57:56;38.95;;;15.07;;
72261;SDS011;60173;52.112;8.648;2023-01-26T15:00:32;39.90;;;16.20;;
72261;SDS011;60173;52.112;8.648;2023-01-26T15:03:02;30.60;;;13.73;;
72261;SDS011;60173;52.112;8.648;2023-01-26T15:05:32;35.20;;;14.80;;
72261;SDS011;60173;52.112;8.648;2023-01-26T15:08:04;37.72;;;15.77;;
72261;SDS011;60173;52.112;8.648;2023-01-26T15:11:04;37.40;;;15.88;;
72261;SDS011;60173;52.112;8.648;2023-01-26T15:13:29;38.10;;;14.88;;
72261;SDS011;60173;52.112;8.648;2023-01-26T15:16:09;37.45;;;14.75;;
72261;SDS011;60173;52.112;8.648;2023-01-26T15:18:43;37.75;;;15.18;;
72261;SDS011;60173;52.112;8.648;2023-01-26T15:21:12;34.75;;;14.63;;
72261;SDS011;60173;52.112;8.648;2023-01-26T15:23:44;42.75;;;16.33;;
72261;SDS011;60173;52.112;8.648;2023-01-26T15:28:53;36.47;;;14.95;;
72261;SDS011;60173;52.112;8.648;2023-01-26T15:31:27;38.08;;;15.48;;
72261;SDS011;60173;52.112;8.648;2023-01-26T15:33:59;41.17;;;15.15;;
72261;SDS011;60173;52.112;8.648;2023-01-26T15:38:59;46.75;;;18.20;;
72261;SDS011;60173;52.112;8.648;2023-01-26T15:41:29;47.30;;;17.50;;
72261;SDS011;60173;52.112;8.648;2023-01-26T15:43:56;47.03;;;16.58;;